Vision — WDF6306 — position and weather

sailwx.info

Track history (hours):
 
Tides and Currents Weather Stations Pressure Air Temp Water Temp Dewpoint Dewpoint Depression Visibility Wind Speed Wind Dir Waves Ship Positions

Vision

More information available from US FCC via Universal Licensing System and Coast Guard Vessel Documentation Center.

Last reported at 2014-Jul-24 17:31 UTC. Time now 2014-Jul-24 20:01 UTC.
Position N 48°15' W 125°17'.

Length 199 m; draft 6.7 m.

Type: Tow > 200 m length. MMSI: 366904000.

Date/timePositionNaut miles runAvg speedWind from/ knotsBaromVisibWave heightAir tempDewpointWater temp
2014-Jul-24 17:31N 48°15' W 125°17'1111.4
2014-Jul-24 16:33N 48°25' W 125°11'10 9.6
2014-Jul-24 15:33N 48°30' W 124°59'1312.7
2014-Jul-24 14:33N 48°29' W 124°40'1414.1
2014-Jul-24 13:33N 48°24' W 124°20'1414.3
2014-Jul-24 12:34N 48°19' W 124°01'1413.8
2014-Jul-24 11:33N 48°16' W 123°40'1212.0
2014-Jul-24 10:33N 48°10' W 123°24'9 9.4
2014-Jul-24 09:33N 48°14' W 123°11'1212.0
2014-Jul-24 08:33N 48°21' W 122°57'1111.2
2014-Jul-24 07:33N 48°29' W 122°44'6 6.3
2014-Jul-24 06:33N 48°31' W 122°35'1 0.6
2014-Jul-24 05:33N 48°31' W 122°35'0 0.0
2014-Jul-24 04:31N 48°31' W 122°35'0 0.0
2014-Jul-24 03:31N 48°31' W 122°35'0 0.0
2014-Jul-24 02:31N 48°31' W 122°35'0 0.0
2014-Jul-24 01:31N 48°31' W 122°35'0 0.0
2014-Jul-24 00:31N 48°31' W 122°35'0 0.0
2014-Jul-23 23:31N 48°31' W 122°35'0 0.0
2014-Jul-23 22:31N 48°31' W 122°35'0 0.0
2014-Jul-23 21:31N 48°31' W 122°35'0 0.0
2014-Jul-23 20:31N 48°31' W 122°35'0 0.0
2014-Jul-23 19:31N 48°31' W 122°35'0 0.0
2014-Jul-23 18:31N 48°31' W 122°35'0 0.0
2014-Jul-23 17:31N 48°31' W 122°35'0 0.0
2014-Jul-23 16:31N 48°31' W 122°35'0 0.0
2014-Jul-23 15:31N 48°31' W 122°35'0 0.0
2014-Jul-23 14:25N 48°31' W 122°35'0 0.0
2014-Jul-23 13:31N 48°31' W 122°35'0 0.0
2014-Jul-23 12:31N 48°31' W 122°35'0 0.0
2014-Jul-23 11:31N 48°31' W 122°35'0 0.0
2014-Jul-23 10:31N 48°31' W 122°35'0 0.0
2014-Jul-23 09:31N 48°31' W 122°35'0 0.0
2014-Jul-23 08:31N 48°31' W 122°35'0 0.0
2014-Jul-23 07:31N 48°31' W 122°35'0 0.0
2014-Jul-23 06:31N 48°31' W 122°35'0 0.0
2014-Jul-23 05:31N 48°31' W 122°35'0 0.0
2014-Jul-23 04:31N 48°31' W 122°35'0 0.0
2014-Jul-23 03:31N 48°31' W 122°35'0 0.0
2014-Jul-23 02:31N 48°31' W 122°35'0 0.0
2014-Jul-23 01:31N 48°31' W 122°35'0 0.0
2014-Jul-23 00:31N 48°31' W 122°35'0 0.0
2014-Jul-22 23:31N 48°31' W 122°35'0 0.0
2014-Jul-22 22:31N 48°31' W 122°35'0 0.0
2014-Jul-22 21:31N 48°31' W 122°35'0 0.0
2014-Jul-22 20:31N 48°31' W 122°35'0 0.0
2014-Jul-22 19:31N 48°31' W 122°35'0 0.0
2014-Jul-22 18:31N 48°31' W 122°35'0 0.0
2014-Jul-22 17:31N 48°31' W 122°35'0 0.0
2014-Jul-22 16:25N 48°31' W 122°35'0 0.0
2014-Jul-22 15:25N 48°31' W 122°35'0 0.0
2014-Jul-22 14:28N 48°31' W 122°35'0 0.0
2014-Jul-22 13:31N 48°31' W 122°35'0 0.0
2014-Jul-22 12:31N 48°31' W 122°35'0 0.0
2014-Jul-22 11:31N 48°31' W 122°35'0 0.0
2014-Jul-22 10:28N 48°31' W 122°35'0 0.0
2014-Jul-22 09:31N 48°31' W 122°35'0 0.0
2014-Jul-22 08:31N 48°31' W 122°35'0 0.0
2014-Jul-22 07:31N 48°31' W 122°35'0 0.0
2014-Jul-22 06:31N 48°31' W 122°35'0 0.0
2014-Jul-22 05:31N 48°31' W 122°35'0 0.0
2014-Jul-22 04:33N 48°31' W 122°35'1 1.0
2014-Jul-22 03:28N 48°31' W 122°34'0 0.1
2014-Jul-22 02:28N 48°31' W 122°34'0 0.1
2014-Jul-22 01:28N 48°31' W 122°34'0 0.0
2014-Jul-22 00:28N 48°31' W 122°34'0 0.0
2014-Jul-21 23:31N 48°31' W 122°34'0 0.0
2014-Jul-21 22:28N 48°31' W 122°34'0 0.1
2014-Jul-21 21:31N 48°31' W 122°34'0 0.1
2014-Jul-21 20:31N 48°31' W 122°34'0 0.0
2014-Jul-21 20:16N 48°31' W 122°34'0 0.0
2014-Jul-21 19:31N 48°31' W 122°34'0 0.2
2014-Jul-21 18:22N 48°31' W 122°34'2 3.0
2014-Jul-21 17:34N 48°31' W 122°38'1211.7
2014-Jul-21 16:33N 48°23' W 122°50'1312.6
2014-Jul-21 15:33N 48°16' W 123°06'811.6
2014-Jul-21 14:49N 48°12' W 123°17'310.8
2014-Jul-21 14:33N 48°10' W 123°21'9 8.6
2014-Jul-21 13:33N 48°13' W 123°33'8 8.2
2014-Jul-21 12:33N 48°13' W 123°45'8 8.0
2014-Jul-21 11:33N 48°13' W 123°57'8 8.1
2014-Jul-21 10:33N 48°17' W 124°08'5 4.6
2014-Jul-21 09:33N 48°19' W 124°14'5 4.7
2014-Jul-21 08:26N 48°21' W 124°21'137 6.5
2014-Jul-20 11:26N 46°04' W 124°37'1112.3
2014-Jul-20 10:33N 46°10' W 124°24'1212.2
2014-Jul-20 09:33N 46°14' W 124°07'1212.1
2014-Jul-20 08:33N 46°12' W 123°50'3 2.6
2014-Jul-20 07:31N 46°13' W 123°47'0 0.1
2014-Jul-20 06:31N 46°13' W 123°47'0 0.2
2014-Jul-20 05:19N 46°13' W 123°46'0 0.3
2014-Jul-20 04:31N 46°13' W 123°46'0 0.1
2014-Jul-20 03:31N 46°13' W 123°46'0 0.0
2014-Jul-20 02:31N 46°13' W 123°46'0 0.0
2014-Jul-20 01:31N 46°13' W 123°46'0 0.0
2014-Jul-20 00:31N 46°13' W 123°46'0 0.0
2014-Jul-19 23:31N 46°13' W 123°46'0 0.0
2014-Jul-19 22:31N 46°13' W 123°46'0 0.3
2014-Jul-19 21:31N 46°13' W 123°47'3 3.2
2014-Jul-19 20:33N 46°14' W 123°43'1211.7
2014-Jul-19 19:33N 46°15' W 123°26'10 9.3
2014-Jul-19 18:28N 46°10' W 123°13'1011.3
2014-Jul-19 17:33N 46°07' W 122°59'10 9.9
2014-Jul-19 16:33N 45°59' W 122°50'1111.1
2014-Jul-19 15:33N 45°48' W 122°47'9 9.2
2014-Jul-19 14:33N 45°39' W 122°46'5 4.7
2014-Jul-19 13:24N 45°34' W 122°43'  
Track history (hours):
 
Tides and Currents Weather Stations Pressure Air Temp Water Temp Dewpoint Dewpoint Depression Visibility Wind Speed Wind Dir Waves Ship Positions

Vision

More information available from US FCC via Universal Licensing System and Coast Guard Vessel Documentation Center.

Last reported at 2014-Jul-24 17:31 UTC. Time now 2014-Jul-24 20:01 UTC.
Position N 48°15' W 125°17'.

Length 199 m; draft 6.7 m.

Type: Tow > 200 m length. MMSI: 366904000.

Date/timePositionNaut miles runAvg speedWind from/ knotsBaromVisibWave heightAir tempDewpointWater temp
2014-Jul-24 17:31N 48°15' W 125°17'1111.4
2014-Jul-24 16:33N 48°25' W 125°11'10 9.6
2014-Jul-24 15:33N 48°30' W 124°59'1312.7
2014-Jul-24 14:33N 48°29' W 124°40'1414.1
2014-Jul-24 13:33N 48°24' W 124°20'1414.3
2014-Jul-24 12:34N 48°19' W 124°01'1413.8
2014-Jul-24 11:33N 48°16' W 123°40'1212.0
2014-Jul-24 10:33N 48°10' W 123°24'9 9.4
2014-Jul-24 09:33N 48°14' W 123°11'1212.0
2014-Jul-24 08:33N 48°21' W 122°57'1111.2
2014-Jul-24 07:33N 48°29' W 122°44'6 6.3
2014-Jul-24 06:33N 48°31' W 122°35'1 0.6
2014-Jul-24 05:33N 48°31' W 122°35'0 0.0
2014-Jul-24 04:31N 48°31' W 122°35'0 0.0
2014-Jul-24 03:31N 48°31' W 122°35'0 0.0
2014-Jul-24 02:31N 48°31' W 122°35'0 0.0
2014-Jul-24 01:31N 48°31' W 122°35'0 0.0
2014-Jul-24 00:31N 48°31' W 122°35'0 0.0
2014-Jul-23 23:31N 48°31' W 122°35'0 0.0
2014-Jul-23 22:31N 48°31' W 122°35'0 0.0
2014-Jul-23 21:31N 48°31' W 122°35'0 0.0
2014-Jul-23 20:31N 48°31' W 122°35'0 0.0
2014-Jul-23 19:31N 48°31' W 122°35'0 0.0
2014-Jul-23 18:31N 48°31' W 122°35'0 0.0
2014-Jul-23 17:31N 48°31' W 122°35'0 0.0
2014-Jul-23 16:31N 48°31' W 122°35'0 0.0
2014-Jul-23 15:31N 48°31' W 122°35'0 0.0
2014-Jul-23 14:25N 48°31' W 122°35'0 0.0
2014-Jul-23 13:31N 48°31' W 122°35'0 0.0
2014-Jul-23 12:31N 48°31' W 122°35'0 0.0
2014-Jul-23 11:31N 48°31' W 122°35'0 0.0
2014-Jul-23 10:31N 48°31' W 122°35'0 0.0
2014-Jul-23 09:31N 48°31' W 122°35'0 0.0
2014-Jul-23 08:31N 48°31' W 122°35'0 0.0
2014-Jul-23 07:31N 48°31' W 122°35'0 0.0
2014-Jul-23 06:31N 48°31' W 122°35'0 0.0
2014-Jul-23 05:31N 48°31' W 122°35'0 0.0
2014-Jul-23 04:31N 48°31' W 122°35'0 0.0
2014-Jul-23 03:31N 48°31' W 122°35'0 0.0
2014-Jul-23 02:31N 48°31' W 122°35'0 0.0
2014-Jul-23 01:31N 48°31' W 122°35'0 0.0
2014-Jul-23 00:31N 48°31' W 122°35'0 0.0
2014-Jul-22 23:31N 48°31' W 122°35'0 0.0
2014-Jul-22 22:31N 48°31' W 122°35'0 0.0
2014-Jul-22 21:31N 48°31' W 122°35'0 0.0
2014-Jul-22 20:31N 48°31' W 122°35'0 0.0
2014-Jul-22 19:31N 48°31' W 122°35'0 0.0
2014-Jul-22 18:31N 48°31' W 122°35'0 0.0
2014-Jul-22 17:31N 48°31' W 122°35'0 0.0
2014-Jul-22 16:25N 48°31' W 122°35'0 0.0
2014-Jul-22 15:25N 48°31' W 122°35'0 0.0
2014-Jul-22 14:28N 48°31' W 122°35'0 0.0
2014-Jul-22 13:31N 48°31' W 122°35'0 0.0
2014-Jul-22 12:31N 48°31' W 122°35'0 0.0
2014-Jul-22 11:31N 48°31' W 122°35'0 0.0
2014-Jul-22 10:28N 48°31' W 122°35'0 0.0
2014-Jul-22 09:31N 48°31' W 122°35'0 0.0
2014-Jul-22 08:31N 48°31' W 122°35'0 0.0
2014-Jul-22 07:31N 48°31' W 122°35'0 0.0
2014-Jul-22 06:31N 48°31' W 122°35'0 0.0
2014-Jul-22 05:31N 48°31' W 122°35'0 0.0
2014-Jul-22 04:33N 48°31' W 122°35'1 1.0
2014-Jul-22 03:28N 48°31' W 122°34'0 0.1
2014-Jul-22 02:28N 48°31' W 122°34'0 0.1
2014-Jul-22 01:28N 48°31' W 122°34'0 0.0
2014-Jul-22 00:28N 48°31' W 122°34'0 0.0
2014-Jul-21 23:31N 48°31' W 122°34'0 0.0
2014-Jul-21 22:28N 48°31' W 122°34'0 0.1
2014-Jul-21 21:31N 48°31' W 122°34'0 0.1
2014-Jul-21 20:31N 48°31' W 122°34'0 0.0
2014-Jul-21 20:16N 48°31' W 122°34'0 0.0
2014-Jul-21 19:31N 48°31' W 122°34'0 0.2
2014-Jul-21 18:22N 48°31' W 122°34'2 3.0
2014-Jul-21 17:34N 48°31' W 122°38'1211.7
2014-Jul-21 16:33N 48°23' W 122°50'1312.6
2014-Jul-21 15:33N 48°16' W 123°06'811.6
2014-Jul-21 14:49N 48°12' W 123°17'310.8
2014-Jul-21 14:33N 48°10' W 123°21'9 8.6
2014-Jul-21 13:33N 48°13' W 123°33'8 8.2
2014-Jul-21 12:33N 48°13' W 123°45'8 8.0
2014-Jul-21 11:33N 48°13' W 123°57'8 8.1
2014-Jul-21 10:33N 48°17' W 124°08'5 4.6
2014-Jul-21 09:33N 48°19' W 124°14'5 4.7
2014-Jul-21 08:26N 48°21' W 124°21'137 6.5
2014-Jul-20 11:26N 46°04' W 124°37'1112.3
2014-Jul-20 10:33N 46°10' W 124°24'1212.2
2014-Jul-20 09:33N 46°14' W 124°07'1212.1
2014-Jul-20 08:33N 46°12' W 123°50'3 2.6
2014-Jul-20 07:31N 46°13' W 123°47'0 0.1
2014-Jul-20 06:31N 46°13' W 123°47'0 0.2
2014-Jul-20 05:19N 46°13' W 123°46'0 0.3
2014-Jul-20 04:31N 46°13' W 123°46'0 0.1
2014-Jul-20 03:31N 46°13' W 123°46'0 0.0
2014-Jul-20 02:31N 46°13' W 123°46'0 0.0
2014-Jul-20 01:31N 46°13' W 123°46'0 0.0
2014-Jul-20 00:31N 46°13' W 123°46'0 0.0
2014-Jul-19 23:31N 46°13' W 123°46'0 0.0
2014-Jul-19 22:31N 46°13' W 123°46'0 0.3
2014-Jul-19 21:31N 46°13' W 123°47'3 3.2
2014-Jul-19 20:33N 46°14' W 123°43'1211.7
2014-Jul-19 19:33N 46°15' W 123°26'10 9.3
2014-Jul-19 18:28N 46°10' W 123°13'1011.3
2014-Jul-19 17:33N 46°07' W 122°59'10 9.9
2014-Jul-19 16:33N 45°59' W 122°50'1111.1
2014-Jul-19 15:33N 45°48' W 122°47'9 9.2
2014-Jul-19 14:33N 45°39' W 122°46'5 4.7
2014-Jul-19 13:24N 45°34' W 122°43'  

Dump ship's entire track history